Time;durP1;ratioP1;P1;durP2;ratioP2;P2;SDS_P1;SDS_P2;PMS_P1;PMS_P2;Temp;Humidity;BMP_temperature;BMP_pressure;BME280_temperature;BME280_humidity;BME280_pressure;Samples;Min_cycle;Max_cycle;Signal;HPM_P1;HPM_P2
2020/12/29 13:16:58;;;;;;;29.98;23.45;;;14.90;58.30;;;;;;5100197;27;20798;-55
2020/12/29 13:19:24;;;;;;;22.85;17.67;;;15.90;56.80;;;;;;5093100;28;20036;-56
2020/12/29 13:21:50;;;;;;;16.45;10.77;;;16.60;55.80;;;;;;5088329;28;20446;-57
2020/12/29 13:24:16;;;;;;;14.10;10.65;;;17.30;54.10;;;;;;5093563;28;20023;-58
2020/12/29 13:26:42;;;;;;;14.50;9.63;;;18.00;52.80;;;;;;5097200;28;20055;-58
2020/12/29 13:29:08;;;;;;;15.00;7.50;;;18.60;51.30;;;;;;5087131;28;20064;-56
2020/12/29 13:31:34;;;;;;;10.52;7.03;;;19.10;50.10;;;;;;5090150;28;21046;-57
2020/12/29 13:34:00;;;;;;;10.75;6.28;;;19.60;49.20;;;;;;5086764;28;20410;-57
2020/12/29 13:36:25;;;;;;;10.98;6.15;;;20.00;47.90;;;;;;5088529;28;20085;-56
2020/12/29 13:38:51;;;;;;;10.70;6.47;;;20.40;47.00;;;;;;5084899;28;20432;-57
2020/12/29 13:42:45;;;;;;;11.90;6.00;;;20.80;46.50;;;;;;5079871;28;20663;-60
2020/12/29 13:45:12;;;;;;;7.18;4.18;;;21.20;44.90;;;;;;5082274;28;20021;-61
2020/12/29 13:47:38;;;;;;;9.50;6.43;;;21.50;43.30;;;;;;5086019;28;20462;-62
2020/12/29 13:50:05;;;;;;;11.85;5.05;;;21.80;43.10;;;;;;5073118;28;20122;-61
2020/12/29 13:52:31;;;;;;;7.05;4.13;;;22.10;42.10;;;;;;5083461;28;20059;-62
2020/12/29 13:55:00;;;;;;;7.22;4.05;;;22.30;41.30;;;;;;5075934;28;20029;-63
2020/12/29 13:57:26;;;;;;;8.45;4.05;;;22.50;40.70;;;;;;5081177;28;20111;-59
2020/12/29 13:59:52;;;;;;;7.90;4.00;;;22.60;40.10;;;;;;5074460;28;20021;-58
2020/12/29 14:02:18;;;;;;;8.93;4.00;;;22.70;39.70;;;;;;5083690;28;20397;-60
2020/12/29 14:04:44;;;;;;;4.18;1.95;;;22.80;39.20;;;;;;5088436;28;20024;-59
2020/12/29 14:07:10;;;;;;;4.93;1.90;;;22.80;38.40;;;;;;5075343;28;20032;-60
2020/12/29 14:09:36;;;;;;;6.30;2.22;;;22.80;37.90;;;;;;5084537;28;20089;-71
2020/12/29 14:12:03;;;;;;;9.00;2.53;;;22.80;37.80;;;;;;5078047;28;20032;-67
2020/12/29 14:14:29;;;;;;;6.95;2.33;;;22.80;37.70;;;;;;5080188;28;20036;-67
2020/12/29 14:16:55;;;;;;;7.22;2.38;;;22.80;37.70;;;;;;5076746;28;20032;-66
2020/12/29 14:19:22;;;;;;;4.18;1.90;;;22.80;37.50;;;;;;5075799;28;22039;-67
2020/12/29 14:21:49;;;;;;;8.30;2.08;;;22.80;37.30;;;;;;5075547;28;20074;-59
2020/12/29 14:24:16;;;;;;;6.65;2.75;;;22.80;37.70;;;;;;5067954;28;20021;-58
2020/12/29 14:26:49;;;;;;;7.10;2.53;;;22.70;37.50;;;;;;5076889;28;20025;-58
2020/12/29 14:29:17;;;;;;;5.30;1.85;;;22.70;37.00;;;;;;5075830;28;20020;-58
2020/12/29 14:31:56;;;;;;;6.80;1.92;;;22.70;37.60;;;;;;5080661;28;20501;-59
2020/12/29 14:34:25;;;;;;;4.03;2.20;;;22.70;37.40;;;;;;5077188;28;20561;-59
2020/12/29 14:36:52;;;;;;;8.25;2.30;;;22.70;37.30;;;;;;5079533;28;20028;-59
2020/12/29 14:39:19;;;;;;;2.90;1.70;;;22.70;37.80;;;;;;5075940;28;20037;-67
2020/12/29 14:41:47;;;;;;;3.70;2.00;;;22.70;37.80;;;;;;5076571;28;20389;-57
2020/12/29 14:44:14;;;;;;;5.13;2.13;;;22.70;37.70;;;;;;5074629;28;20025;-56
2020/12/29 14:46:41;;;;;;;5.13;2.83;;;22.60;37.80;;;;;;5077826;28;20469;-56
2020/12/29 14:49:08;;;;;;;5.38;2.30;;;22.60;37.60;;;;;;5074557;28;20024;-59
2020/12/29 14:51:34;;;;;;;4.35;1.98;;;22.50;37.90;;;;;;5078298;28;20032;-60
2020/12/29 14:54:02;;;;;;;7.43;2.30;;;22.40;37.80;;;;;;5063385;28;20120;-59
2020/12/29 14:56:31;;;;;;;5.38;2.25;;;22.40;37.80;;;;;;5065690;28;20099;-58
2020/12/29 14:58:58;;;;;;;9.85;2.40;;;22.40;37.80;;;;;;5068021;28;20021;-59
2020/12/29 15:01:29;;;;;;;4.85;2.58;;;22.30;37.80;;;;;;5067115;28;20100;-59
2020/12/29 15:03:56;;;;;;;4.28;2.60;;;22.30;37.50;;;;;;5067625;28;20970;-58
2020/12/29 15:06:24;;;;;;;6.80;2.95;;;22.30;37.90;;;;;;5062644;28;20025;-59
2020/12/29 15:08:51;;;;;;;4.60;2.67;;;22.20;37.90;;;;;;5070330;28;20035;-58
2020/12/29 15:11:17;;;;;;;7.60;2.05;;;22.20;37.90;;;;;;5062962;28;20359;-58
2020/12/29 15:13:43;;;;;;;3.50;1.95;;;22.20;37.90;;;;;;5062967;28;20081;-59
2020/12/29 15:16:10;;;;;;;4.25;2.28;;;22.20;37.80;;;;;;5062982;28;20060;-58
2020/12/29 15:18:36;;;;;;;7.57;3.78;;;22.10;37.80;;;;;;5065293;28;20061;-59
2020/12/29 15:21:02;;;;;;;5.32;3.30;;;22.10;37.90;;;;;;5059543;28;20036;-58
2020/12/29 15:23:28;;;;;;;8.27;3.95;;;22.20;37.70;;;;;;5064040;28;20021;-57
2020/12/29 15:25:55;;;;;;;5.80;3.33;;;22.10;37.80;;;;;;5062785;28;20086;-58
2020/12/29 15:28:21;;;;;;;6.93;3.78;;;22.10;37.70;;;;;;5059069;28;20021;-58
2020/12/29 15:30:47;;;;;;;5.60;3.25;;;22.20;37.50;;;;;;5066713;28;20156;-62
2020/12/29 15:33:13;;;;;;;5.40;3.45;;;22.20;37.80;;;;;;5060049;28;20020;-64
2020/12/29 15:35:39;;;;;;;5.80;2.97;;;22.10;37.80;;;;;;5065742;28;20044;-64
2020/12/29 15:38:05;;;;;;;9.90;3.30;;;22.10;37.90;;;;;;5052909;28;20029;-64
2020/12/29 15:40:32;;;;;;;8.10;3.22;;;22.10;38.00;;;;;;5064384;28;20109;-63
2020/12/29 15:42:58;;;;;;;7.80;3.50;;;22.10;38.10;;;;;;5065051;28;20025;-63
2020/12/29 15:45:24;;;;;;;4.82;2.78;;;22.10;38.10;;;;;;5056486;28;20565;-64
2020/12/29 15:47:50;;;;;;;7.13;3.08;;;22.10;38.10;;;;;;5057812;28;20069;-61
2020/12/29 15:50:16;;;;;;;5.43;2.60;;;22.10;38.10;;;;;;5061648;28;20400;-66
2020/12/29 15:52:42;;;;;;;6.93;3.05;;;22.10;38.10;;;;;;5057624;28;20025;-61
2020/12/29 15:55:08;;;;;;;7.07;3.08;;;22.10;38.10;;;;;;5061340;28;20033;-61
2020/12/29 15:57:34;;;;;;;6.78;2.95;;;22.10;38.10;;;;;;5055581;28;20483;-61
2020/12/29 16:00:00;;;;;;;4.88;2.58;;;22.00;38.10;;;;;;5062230;28;20035;-61
2020/12/29 16:02:26;;;;;;;3.80;2.40;;;22.00;38.30;;;;;;5057954;28;20080;-63
2020/12/29 16:04:52;;;;;;;8.43;3.08;;;22.10;38.30;;;;;;5059489;28;20149;-63
2020/12/29 16:07:18;;;;;;;5.72;2.70;;;22.00;38.30;;;;;;5061753;28;20120;-60
2020/12/29 16:09:44;;;;;;;5.93;2.85;;;22.00;38.30;;;;;;5067464;28;20043;-67
2020/12/29 16:12:10;;;;;;;6.68;2.85;;;22.00;38.40;;;;;;5058334;28;20094;-61
2020/12/29 16:14:36;;;;;;;6.03;2.42;;;22.00;38.30;;;;;;5054549;28;20041;-65
2020/12/29 16:17:02;;;;;;;6.43;3.17;;;21.90;38.30;;;;;;5062712;28;20501;-64
2020/12/29 16:19:28;;;;;;;8.50;5.78;;;21.90;38.40;;;;;;5064604;28;20101;-64
2020/12/29 16:21:54;;;;;;;7.03;5.10;;;21.90;38.50;;;;;;5057453;28;20028;-62
2020/12/29 16:24:20;;;;;;;8.75;6.25;;;21.90;38.70;;;;;;5036959;28;20027;-64
2020/12/29 16:26:46;;;;;;;9.80;6.00;;;21.80;38.70;;;;;;5064350;28;20501;-63
2020/12/29 16:29:12;;;;;;;9.18;6.00;;;21.80;38.90;;;;;;5061866;28;20032;-63
2020/12/29 16:31:40;;;;;;;10.93;6.28;;;21.80;39.00;;;;;;5060084;28;20040;-63
2020/12/29 16:34:09;;;;;;;8.55;6.60;;;21.70;38.90;;;;;;5060351;28;20036;-60
2020/12/29 16:36:37;;;;;;;7.95;5.57;;;21.70;39.10;;;;;;5062236;28;20474;-65
2020/12/29 16:39:05;;;;;;;8.35;5.72;;;21.60;39.00;;;;;;5065548;28;20806;-61
2020/12/29 16:41:33;;;;;;;8.63;5.65;;;21.60;39.10;;;;;;5061797;28;20109;-62
2020/12/29 16:44:00;;;;;;;11.07;7.97;;;21.50;39.10;;;;;;5058123;28;20031;-64
2020/12/29 16:46:27;;;;;;;10.52;7.88;;;21.50;39.30;;;;;;5060033;28;20021;-64
2020/12/29 16:48:54;;;;;;;11.38;8.20;;;21.40;39.30;;;;;;5058232;28;20021;-64
2020/12/29 16:51:23;;;;;;;10.52;7.93;;;21.40;39.30;;;;;;5058091;28;20112;-64
2020/12/29 16:53:49;;;;;;;9.68;6.82;;;21.40;39.30;;;;;;5052668;28;20037;-64
2020/12/29 16:56:17;;;;;;;8.60;6.35;;;21.30;39.40;;;;;;5064588;28;20039;-63
2020/12/29 16:58:44;;;;;;;8.02;6.15;;;21.30;39.50;;;;;;5064933;28;20033;-63
2020/12/29 17:01:16;;;;;;;9.98;5.90;;;21.30;39.60;;;;;;5056478;28;20052;-65
2020/12/29 17:03:43;;;;;;;10.55;7.63;;;21.20;39.50;;;;;;5060611;28;20509;-62
2020/12/29 17:06:15;;;;;;;11.60;9.02;;;21.30;39.80;;;;;;5059565;28;20020;-64
2020/12/29 17:08:41;;;;;;;13.23;11.38;;;21.20;39.70;;;;;;5056104;28;20032;-64
2020/12/29 17:11:14;;;;;;;14.60;10.38;;;21.20;39.90;;;;;;5062877;28;20414;-61
2020/12/29 17:13:41;;;;;;;15.50;11.90;;;21.10;39.80;;;;;;5062300;28;20033;-65
2020/12/29 17:16:14;;;;;;;15.40;13.75;;;21.10;39.90;;;;;;5055939;28;20037;-64
2020/12/29 17:18:41;;;;;;;20.08;14.85;;;21.10;39.90;;;;;;5062286;28;20466;-65
2020/12/29 17:21:13;;;;;;;19.98;15.63;;;21.10;40.10;;;;;;5064133;28;20047;-63
2020/12/29 17:23:39;;;;;;;19.63;14.77;;;21.00;40.10;;;;;;5053925;28;20501;-67
2020/12/29 17:26:06;;;;;;;21.15;14.85;;;21.00;40.30;;;;;;5058302;28;20028;-63
2020/12/29 17:28:32;;;;;;;18.63;13.77;;;21.00;40.30;;;;;;5087951;28;20044;-63
2020/12/29 17:31:00;;;;;;;20.95;14.38;;;21.00;40.40;;;;;;5075953;28;20029;-62
2020/12/29 17:33:26;;;;;;;16.52;13.57;;;20.90;40.40;;;;;;5056009;28;20033;-62
2020/12/29 17:35:53;;;;;;;17.00;14.60;;;20.90;40.50;;;;;;5059785;28;20025;-62
2020/12/29 17:38:19;;;;;;;21.70;16.33;;;20.90;40.50;;;;;;5062625;28;20559;-63
2020/12/29 17:40:45;;;;;;;16.35;13.88;;;20.90;40.50;;;;;;5063535;28;20105;-64
2020/12/29 17:43:12;;;;;;;16.35;12.98;;;20.90;40.60;;;;;;5093853;28;20032;-64
2020/12/29 17:45:39;;;;;;;15.20;13.50;;;20.90;40.60;;;;;;5062335;28;20032;-65
2020/12/29 17:48:08;;;;;;;16.88;13.65;;;20.80;40.70;;;;;;5053373;28;20021;-65
2020/12/29 17:50:35;;;;;;;18.23;13.18;;;20.80;40.60;;;;;;5055162;28;20025;-65
2020/12/29 17:53:03;;;;;;;16.88;12.57;;;20.80;40.80;;;;;;5039034;28;20056;-65
2020/12/29 17:55:29;;;;;;;15.52;12.15;;;20.80;40.90;;;;;;5057588;28;20025;-65
2020/12/29 17:57:59;;;;;;;19.48;13.00;;;20.80;41.00;;;;;;5057189;28;20039;-62
2020/12/29 18:00:25;;;;;;;20.02;13.63;;;20.80;41.00;;;;;;5068443;28;20039;-64
2020/12/29 18:02:51;;;;;;;14.90;12.57;;;20.70;41.00;;;;;;5062458;28;20421;-62
2020/12/29 18:05:18;;;;;;;15.00;12.57;;;20.70;41.00;;;;;;5062622;28;20029;-61
2020/12/29 18:07:44;;;;;;;19.08;13.40;;;20.70;41.10;;;;;;5039371;28;20021;-61
2020/12/29 18:10:10;;;;;;;14.38;12.48;;;20.70;41.10;;;;;;5060767;28;20021;-63
2020/12/29 18:12:37;;;;;;;15.90;13.23;;;20.60;41.10;;;;;;5061063;28;20045;-63
2020/12/29 18:15:04;;;;;;;14.93;12.02;;;20.60;41.20;;;;;;5057245;28;20103;-63
2020/12/29 18:17:30;;;;;;;14.02;11.45;;;20.60;41.20;;;;;;5060671;28;20563;-63
2020/12/29 18:19:56;;;;;;;16.60;12.85;;;20.60;41.20;;;;;;5056012;28;20055;-64
2020/12/29 18:22:22;;;;;;;21.17;18.40;;;20.60;41.30;;;;;;5054891;28;20090;-64
2020/12/29 18:24:48;;;;;;;21.02;17.42;;;20.60;41.10;;;;;;5064967;28;20382;-63
2020/12/29 18:27:14;;;;;;;21.90;18.83;;;20.50;41.10;;;;;;5062045;28;20017;-63
2020/12/29 18:29:40;;;;;;;31.00;25.13;;;20.50;41.10;;;;;;5057656;28;20029;-63
2020/12/29 18:32:06;;;;;;;33.33;26.40;;;20.50;41.10;;;;;;5062848;28;20099;-62
2020/12/29 18:34:32;;;;;;;28.38;24.98;;;20.50;41.30;;;;;;5055416;28;20128;-63
2020/12/29 18:36:58;;;;;;;30.15;25.90;;;20.50;41.10;;;;;;5058388;28;20779;-62
2020/12/29 18:39:24;;;;;;;26.48;22.55;;;20.50;41.10;;;;;;5061910;28;20029;-62
2020/12/29 18:41:51;;;;;;;29.85;22.75;;;20.40;41.10;;;;;;5068603;28;20048;-62
2020/12/29 18:44:20;;;;;;;30.15;25.13;;;20.40;41.10;;;;;;5053925;28;20021;-65
2020/12/29 18:46:47;;;;;;;35.28;29.75;;;20.40;41.10;;;;;;5067924;28;20025;-63
2020/12/29 18:49:13;;;;;;;31.60;27.42;;;20.40;41.10;;;;;;5057866;28;20037;-62
2020/12/29 18:51:39;;;;;;;30.35;27.02;;;20.40;41.20;;;;;;5059374;28;20056;-62
2020/12/29 18:54:06;;;;;;;29.40;25.67;;;20.40;41.20;;;;;;5062106;28;20063;-62
2020/12/29 18:56:32;;;;;;;28.80;25.67;;;20.40;41.20;;;;;;5064608;28;20029;-62
2020/12/29 18:58:59;;;;;;;29.30;25.88;;;20.30;41.20;;;;;;5058731;28;20033;-61
2020/12/29 19:01:30;;;;;;;29.77;25.30;;;20.30;41.20;;;;;;5062248;28;20028;-60
2020/12/29 19:03:56;;;;;;;;;;;20.30;41.20;;;;;;5063580;28;20037;-60
2020/12/29 19:06:23;;;;;;;28.23;25.08;;;20.30;41.40;;;;;;5058187;28;19909;-59
2020/12/29 19:08:50;;;;;;;27.10;22.58;;;20.40;41.20;;;;;;5060178;28;20033;-59
2020/12/29 19:11:20;;;;;;;23.98;21.48;;;20.40;41.20;;;;;;5062225;28;20417;-59
2020/12/29 19:13:47;;;;;;;26.80;23.65;;;20.30;41.10;;;;;;5054878;28;20144;-59
2020/12/29 19:16:17;;;;;;;25.25;22.13;;;20.30;41.30;;;;;;5053648;28;20032;-61
2020/12/29 19:18:47;;;;;;;23.13;20.58;;;20.30;41.10;;;;;;5061139;28;20021;-61
2020/12/29 19:21:14;;;;;;;24.17;18.60;;;20.30;41.20;;;;;;5057180;28;20042;-61
2020/12/29 19:23:45;;;;;;;21.10;17.92;;;20.20;41.00;;;;;;5062400;28;20075;-63
2020/12/29 19:26:16;;;;;;;25.63;21.00;;;20.20;41.00;;;;;;5070480;28;20478;-61
2020/12/29 19:28:43;;;;;;;33.05;25.25;;;20.20;41.00;;;;;;5062626;28;20158;-59
2020/12/29 19:31:10;;;;;;;27.55;21.02;;;20.20;41.10;;;;;;5061713;28;20028;-59
2020/12/29 19:33:36;;;;;;;18.88;14.57;;;20.20;40.80;;;;;;5060157;28;20437;-63
2020/12/29 19:36:04;;;;;;;19.40;11.63;;;20.20;40.80;;;;;;5065685;28;20082;-59
2020/12/29 19:38:30;;;;;;;16.02;10.95;;;20.10;40.70;;;;;;5065619;28;20087;-60
2020/12/29 19:40:57;;;;;;;12.15;8.75;;;20.10;40.90;;;;;;5059145;28;20048;-61
2020/12/29 19:43:26;;;;;;;10.82;7.32;;;20.10;40.90;;;;;;5066202;28;20043;-61
2020/12/29 19:45:52;;;;;;;10.07;6.70;;;20.00;40.80;;;;;;5064547;28;20032;-59
2020/12/29 19:48:18;;;;;;;19.65;16.98;;;20.00;40.80;;;;;;5069090;28;20029;-59
2020/12/29 19:50:44;;;;;;;31.58;24.25;;;20.00;41.00;;;;;;5056553;28;20021;-62
2020/12/29 19:53:10;;;;;;;34.70;28.88;;;20.00;41.20;;;;;;5065292;28;20025;-62
2020/12/29 19:55:37;;;;;;;41.40;31.95;;;20.00;41.40;;;;;;5056512;28;20161;-61
2020/12/29 19:58:06;;;;;;;37.28;32.45;;;20.00;41.50;;;;;;5058695;28;20029;-62
2020/12/29 20:00:35;;;;;;;37.95;31.55;;;19.90;41.60;;;;;;5071593;28;20028;-63
2020/12/29 20:03:02;;;;;;;32.55;28.75;;;19.90;41.50;;;;;;5068113;28;20029;-59
2020/12/29 20:05:28;;;;;;;32.63;28.73;;;19.90;41.60;;;;;;5077655;28;20029;-64
2020/12/29 20:07:54;;;;;;;35.63;28.25;;;20.00;41.60;;;;;;5066247;28;20027;-63
2020/12/29 20:10:20;;;;;;;32.70;25.95;;;20.00;41.60;;;;;;5072581;28;20533;-64
2020/12/29 20:12:47;;;;;;;30.38;24.60;;;20.00;41.70;;;;;;5063258;28;20056;-66
2020/12/29 20:15:13;;;;;;;27.10;21.90;;;20.00;41.70;;;;;;5059575;28;20028;-63
2020/12/29 20:17:39;;;;;;;30.08;22.73;;;19.90;41.70;;;;;;5059610;28;20035;-62
2020/12/29 20:20:06;;;;;;;25.25;18.83;;;20.00;41.80;;;;;;5072566;28;20051;-63
2020/12/29 20:22:35;;;;;;;28.05;21.33;;;19.90;41.80;;;;;;5065905;28;20090;-61
2020/12/29 20:25:01;;;;;;;24.92;19.10;;;19.90;41.90;;;;;;5062269;28;20059;-58
2020/12/29 20:27:27;;;;;;;30.50;18.52;;;20.00;42.00;;;;;;5062300;28;20025;-61
2020/12/29 20:29:53;;;;;;;22.55;17.35;;;20.00;42.00;;;;;;5063579;28;20489;-59
2020/12/29 20:32:19;;;;;;;25.98;19.58;;;20.00;42.00;;;;;;5067766;28;20029;-59
2020/12/29 20:34:45;;;;;;;23.25;17.48;;;20.00;42.10;;;;;;5058984;28;20391;-60
2020/12/29 20:37:11;;;;;;;23.00;16.70;;;20.00;42.10;;;;;;5064860;28;20032;-60
2020/12/29 20:39:37;;;;;;;22.70;16.77;;;19.90;42.00;;;;;;5065767;28;20037;-59
2020/12/29 20:42:04;;;;;;;20.45;16.13;;;20.00;42.10;;;;;;5061275;28;20059;-61
2020/12/29 20:44:30;;;;;;;17.45;14.68;;;20.00;42.20;;;;;;5070211;28;20032;-61
2020/12/29 20:46:56;;;;;;;19.80;15.55;;;20.00;42.20;;;;;;5060681;28;20037;-62
2020/12/29 20:49:22;;;;;;;20.23;14.65;;;20.00;42.20;;;;;;5058535;28;20488;-61
2020/12/29 20:51:49;;;;;;;21.45;14.07;;;20.00;42.20;;;;;;5065562;28;20052;-61
2020/12/29 20:54:16;;;;;;;19.90;13.52;;;20.00;42.20;;;;;;5061022;28;20037;-61
2020/12/29 20:56:43;;;;;;;18.95;13.55;;;20.00;42.30;;;;;;5062788;28;20079;-63
2020/12/29 20:59:09;;;;;;;15.18;11.57;;;20.00;42.30;;;;;;5053880;28;20475;-63
2020/12/29 21:01:36;;;;;;;15.15;12.35;;;20.00;42.30;;;;;;5067640;28;20036;-61
2020/12/29 21:04:02;;;;;;;13.60;10.45;;;20.00;42.30;;;;;;5044244;28;20029;-61
2020/12/29 21:06:28;;;;;;;16.35;10.35;;;20.00;42.30;;;;;;5057043;28;20035;-61
2020/12/29 21:08:54;;;;;;;17.02;10.50;;;20.00;42.30;;;;;;5046200;28;20033;-59
2020/12/29 21:11:22;;;;;;;12.60;9.60;;;20.00;42.40;;;;;;5068368;28;20025;-59
2020/12/29 21:13:50;;;;;;;13.93;9.70;;;20.00;42.30;;;;;;5065360;28;20068;-59
2020/12/29 21:16:22;;;;;;;13.55;8.60;;;20.00;42.40;;;;;;5059643;28;20032;-59
2020/12/29 21:18:49;;;;;;;13.20;9.85;;;20.00;42.40;;;;;;5056543;28;20129;-58
2020/12/29 21:21:27;;;;;;;14.93;12.10;;;20.00;42.40;;;;;;5068119;28;20082;-59
2020/12/29 21:24:01;;;;;;;26.08;22.88;;;20.00;42.30;;;;;;5081726;28;20075;-60
2020/12/29 21:26:29;;;;;;;34.25;29.30;;;20.00;42.30;;;;;;5060721;28;20037;-60
2020/12/29 21:28:55;;;;;;;35.65;30.45;;;20.00;42.30;;;;;;5064581;28;20082;-59
2020/12/29 21:31:27;;;;;;;33.10;29.08;;;20.00;42.30;;;;;;5054087;28;20486;-60
2020/12/29 21:33:53;;;;;;;31.17;27.90;;;20.00;42.20;;;;;;5055620;28;20061;-60
2020/12/29 21:36:22;;;;;;;33.40;28.13;;;20.00;42.30;;;;;;5060971;28;20028;-59
2020/12/29 21:38:49;;;;;;;28.33;24.90;;;20.00;42.30;;;;;;5061233;28;20036;-60
2020/12/29 21:41:16;;;;;;;28.33;25.27;;;20.10;42.30;;;;;;5059124;28;20049;-58
2020/12/29 21:43:42;;;;;;;28.63;25.08;;;20.10;42.40;;;;;;5058480;28;20475;-58
2020/12/29 21:46:17;;;;;;;26.75;22.13;;;20.00;42.30;;;;;;5069606;28;20076;-60
2020/12/29 21:48:45;;;;;;;24.38;21.80;;;20.00;42.20;;;;;;5062703;28;20016;-58
2020/12/29 21:51:15;;;;;;;22.02;19.35;;;20.00;42.30;;;;;;5060013;28;20054;-59
2020/12/29 21:53:41;;;;;;;20.83;18.52;;;20.00;42.20;;;;;;5053006;28;20043;-60
2020/12/29 21:56:08;;;;;;;20.23;18.02;;;20.00;42.30;;;;;;5067745;28;20028;-59
2020/12/29 21:58:38;;;;;;;20.73;18.02;;;20.00;42.30;;;;;;5060691;28;20109;-59
2020/12/29 22:01:08;;;;;;;21.33;19.05;;;20.00;42.30;;;;;;5057102;28;20071;-61
2020/12/29 22:03:34;;;;;;;18.77;16.77;;;20.00;42.30;;;;;;5070936;28;20025;-59
2020/12/29 22:06:00;;;;;;;20.10;16.52;;;20.10;42.40;;;;;;5064173;28;20017;-59
2020/12/29 22:08:26;;;;;;;18.85;14.82;;;20.10;42.30;;;;;;5064663;28;20370;-59
2020/12/29 22:10:52;;;;;;;18.05;14.70;;;20.00;42.30;;;;;;5058681;28;20031;-59
2020/12/29 22:13:18;;;;;;;16.17;14.13;;;20.00;42.30;;;;;;5067582;28;20024;-59
2020/12/29 22:15:45;;;;;;;22.60;14.32;;;20.00;42.90;;;;;;5050515;28;20025;-59
2020/12/29 22:18:11;;;;;;;15.00;13.45;;;20.00;42.30;;;;;;5064545;28;20027;-59
2020/12/29 22:20:37;;;;;;;15.15;13.57;;;20.10;42.40;;;;;;5056429;28;20025;-61
2020/12/29 22:23:03;;;;;;;13.90;12.48;;;20.00;42.30;;;;;;5063844;28;20351;-62
2020/12/29 22:25:29;;;;;;;15.70;13.88;;;20.00;42.30;;;;;;5074384;28;20020;-62
2020/12/29 22:27:55;;;;;;;17.77;13.30;;;20.00;42.30;;;;;;5064034;28;20028;-62
2020/12/29 22:30:21;;;;;;;18.95;16.52;;;20.00;42.20;;;;;;5059723;28;20351;-62
2020/12/29 22:32:48;;;;;;;25.08;22.35;;;20.00;42.20;;;;;;5065335;28;20078;-62
2020/12/29 22:35:14;;;;;;;27.48;24.25;;;20.00;42.10;;;;;;5064305;28;20044;-61
2020/12/29 22:37:40;;;;;;;30.15;26.48;;;20.00;42.00;;;;;;5058804;28;20025;-61
2020/12/29 22:40:06;;;;;;;32.60;27.23;;;20.00;42.00;;;;;;5061587;28;20319;-61
2020/12/29 22:42:33;;;;;;;30.88;24.23;;;20.00;41.90;;;;;;5088541;28;20064;-61
2020/12/29 22:44:59;;;;;;;27.05;24.15;;;20.00;41.80;;;;;;5073098;28;20398;-61
2020/12/29 22:47:26;;;;;;;26.58;23.55;;;20.00;41.80;;;;;;5063578;28;20016;-62
2020/12/29 22:49:52;;;;;;;28.85;24.55;;;20.00;41.80;;;;;;5041152;28;20025;-62
2020/12/29 22:52:18;;;;;;;26.38;23.58;;;19.90;41.70;;;;;;5065267;28;20028;-62
2020/12/29 22:54:44;;;;;;;24.90;22.30;;;19.90;41.70;;;;;;5065855;28;20036;-62
2020/12/29 22:57:10;;;;;;;24.60;21.33;;;19.90;41.70;;;;;;5066462;28;20490;-62
2020/12/29 22:59:36;;;;;;;24.15;21.13;;;19.90;41.70;;;;;;5067430;28;20028;-62
2020/12/29 23:02:03;;;;;;;22.67;20.13;;;19.90;41.70;;;;;;5067981;28;20033;-62
2020/12/29 23:04:29;;;;;;;23.92;19.50;;;19.80;41.50;;;;;;5065961;28;20379;-62
2020/12/29 23:06:57;;;;;;;21.67;18.80;;;19.80;41.50;;;;;;5097546;28;20029;-62
2020/12/29 23:09:23;;;;;;;20.98;18.20;;;19.80;41.50;;;;;;5067507;28;20028;-62
2020/12/29 23:11:53;;;;;;;18.85;16.77;;;19.80;41.40;;;;;;5039146;28;20086;-62
2020/12/29 23:14:21;;;;;;;17.38;15.57;;;19.80;41.30;;;;;;5064926;28;20032;-62
2020/12/29 23:16:47;;;;;;;21.25;16.20;;;19.70;41.20;;;;;;5070148;28;20041;-62
2020/12/29 23:19:13;;;;;;;16.75;14.35;;;19.70;41.20;;;;;;5059716;28;20060;-62
2020/12/29 23:21:39;;;;;;;15.45;13.68;;;19.70;41.20;;;;;;5054536;28;20033;-61
2020/12/29 23:24:05;;;;;;;14.82;13.07;;;19.70;41.30;;;;;;5058216;28;20111;-61
2020/12/29 23:26:31;;;;;;;15.02;13.43;;;19.70;41.30;;;;;;5063357;28;20028;-61
2020/12/29 23:28:57;;;;;;;16.05;13.32;;;19.70;41.30;;;;;;5065841;28;20025;-62
2020/12/29 23:31:23;;;;;;;16.42;13.15;;;19.60;41.20;;;;;;5077574;28;20023;-61
2020/12/29 23:33:50;;;;;;;16.25;13.07;;;19.60;41.20;;;;;;5073981;28;20398;-62
2020/12/29 23:36:15;;;;;;;13.60;11.50;;;19.60;41.20;;;;;;5066344;28;20068;-61
2020/12/29 23:38:42;;;;;;;20.55;16.75;;;19.60;41.10;;;;;;5064047;28;20100;-62
2020/12/29 23:41:14;;;;;;;46.38;37.00;;;19.60;41.10;;;;;;5062345;28;20051;-62
2020/12/29 23:43:40;;;;;;;47.83;39.42;;;19.50;41.10;;;;;;5056600;28;20033;-62
2020/12/29 23:46:11;;;;;;;41.30;36.22;;;19.50;41.20;;;;;;5056740;28;20055;-61
2020/12/29 23:48:38;;;;;;;40.42;36.03;;;19.50;41.10;;;;;;5063366;28;20029;-62
2020/12/29 23:51:05;;;;;;;41.20;34.72;;;19.60;41.20;;;;;;5068714;28;20374;-61
2020/12/29 23:53:31;;;;;;;38.72;33.17;;;19.50;41.00;;;;;;5058469;28;20029;-60
2020/12/29 23:55:57;;;;;;;34.45;29.33;;;19.50;41.10;;;;;;5058459;28;20482;-61
2020/12/29 23:58:23;;;;;;;35.03;29.98;;;19.50;41.00;;;;;;5058000;28;20541;-61
